createdAt,value
2019-05-12T00:01:48.039Z,3.30
2019-05-12T00:04:48.858Z,3.33
2019-05-12T00:07:50.333Z,3.00
2019-05-12T00:10:52.615Z,4.00
2019-05-12T00:13:54.888Z,3.97
2019-05-12T00:16:58.012Z,5.13
2019-05-12T00:19:59.369Z,5.83
2019-05-12T00:23:02.309Z,3.90
2019-05-12T00:26:04.661Z,4.07
2019-05-12T00:29:07.706Z,4.23
2019-05-12T00:32:09.272Z,3.70
2019-05-12T00:35:11.562Z,3.00
2019-05-12T00:38:13.849Z,4.07
2019-05-12T00:41:18.138Z,6.97
2019-05-12T00:44:18.566Z,5.57
2019-05-12T00:47:20.647Z,4.00
2019-05-12T00:50:22.879Z,3.33
2019-05-12T00:53:37.255Z,3.23
2019-05-12T00:56:28.494Z,3.13
2019-05-12T00:59:29.676Z,3.00
2019-05-12T01:02:31.940Z,3.37
2019-05-12T01:05:34.175Z,3.30
2019-05-12T01:08:38.311Z,3.30
2019-05-12T01:11:38.771Z,4.67
2019-05-12T01:14:41.019Z,3.30
2019-05-12T01:17:43.219Z,4.47
2019-05-12T01:20:47.795Z,3.43
2019-05-12T01:23:56.537Z,3.57
2019-05-12T01:26:50.199Z,3.50
2019-05-12T01:29:52.517Z,3.40
2019-05-12T01:32:54.795Z,3.60
2019-05-12T01:35:58.674Z,3.10
2019-05-12T01:39:01.878Z,3.00
2019-05-12T01:42:01.557Z,2.90
2019-05-12T01:45:03.967Z,3.20
2019-05-12T01:48:08.678Z,2.80
2019-05-12T01:51:08.591Z,2.87
2019-05-12T01:54:14.844Z,3.40
2019-05-12T01:57:13.115Z,2.90
2019-05-12T02:00:15.372Z,3.63
2019-05-12T02:03:17.926Z,2.70
2019-05-12T02:06:19.970Z,3.17
2019-05-12T02:09:22.397Z,2.80
2019-05-12T02:12:24.623Z,3.23
2019-05-12T02:15:27.824Z,4.03
2019-05-12T02:18:29.083Z,3.20
2019-05-12T02:21:31.304Z,3.20
2019-05-12T02:24:33.547Z,3.13
2019-05-12T02:27:38.159Z,3.03
2019-05-12T02:30:41.538Z,4.23
2019-05-12T02:33:40.507Z,3.53
2019-05-12T02:36:44.927Z,3.67
2019-05-12T02:39:45.085Z,3.37
2019-05-12T02:42:47.284Z,3.30
2019-05-12T02:45:49.553Z,3.87
2019-05-12T02:48:54.582Z,3.80
2019-05-12T02:51:54.733Z,5.70
2019-05-12T02:55:00.489Z,3.63
2019-05-12T02:57:58.660Z,4.80
2019-05-12T03:01:00.936Z,4.53
2019-05-12T03:04:05.625Z,4.03
2019-05-12T03:07:06.600Z,3.93
2019-05-12T03:10:07.752Z,4.07
2019-05-12T03:13:09.980Z,4.13
2019-05-12T03:16:14.919Z,4.07
2019-05-12T03:19:15.124Z,3.57
2019-05-12T03:22:16.720Z,3.70
2019-05-12T03:25:24.733Z,3.80
2019-05-12T03:28:21.160Z,4.13
2019-05-12T03:31:30.630Z,3.80
2019-05-12T03:34:29.527Z,4.67
2019-05-12T03:37:31.324Z,4.10
2019-05-12T03:40:30.247Z,3.27
2019-05-12T03:43:35.178Z,4.03
2019-05-12T03:46:35.328Z,3.23
2019-05-12T03:49:37.069Z,3.90
2019-05-12T03:52:39.364Z,4.47
2019-05-12T03:55:46.261Z,3.70
2019-05-12T03:58:45.324Z,3.60
2019-05-12T04:01:46.167Z,4.93
2019-05-12T04:04:48.388Z,3.20
2019-05-12T04:07:50.605Z,3.27
2019-05-12T04:10:54.742Z,2.67
2019-05-12T04:13:55.325Z,2.60
2019-05-12T04:16:57.340Z,5.97
2019-05-12T04:19:59.731Z,3.17
2019-05-12T04:23:05.351Z,2.43
2019-05-12T04:26:10.972Z,2.30
2019-05-12T04:29:06.701Z,2.50
2019-05-12T04:32:08.937Z,3.20
2019-05-12T04:35:11.203Z,4.97
2019-05-12T04:38:14.793Z,2.47
2019-05-12T04:41:19.608Z,3.40
2019-05-12T04:44:18.048Z,2.90
2019-05-12T04:47:20.305Z,3.20
2019-05-12T04:50:24.578Z,3.10
2019-05-12T04:53:25.349Z,3.43
2019-05-12T04:56:27.229Z,5.03
2019-05-12T04:59:29.456Z,3.60
2019-05-12T05:02:35.734Z,3.43
2019-05-12T05:05:35.319Z,3.10
2019-05-12T05:08:36.254Z,2.57
2019-05-12T05:11:38.502Z,4.60
2019-05-12T05:14:40.712Z,3.50
2019-05-12T05:17:44.092Z,3.53
2019-05-12T05:20:45.256Z,3.17
2019-05-12T05:23:47.549Z,3.00
2019-05-12T05:26:49.819Z,4.03
2019-05-12T05:29:54.202Z,4.50
2019-05-12T05:32:54.283Z,5.17
2019-05-12T05:35:56.495Z,3.70
2019-05-12T05:39:01.839Z,4.33
2019-05-12T05:42:00.923Z,3.00
2019-05-12T05:45:04.909Z,4.10
2019-05-12T05:48:10.070Z,2.83
2019-05-12T05:51:09.144Z,4.83
2019-05-12T05:54:10.228Z,3.53
2019-05-12T05:57:14.365Z,3.57
2019-05-12T06:00:20.508Z,4.40
2019-05-12T06:03:22.909Z,3.23
2019-05-12T06:06:19.397Z,4.57
2019-05-12T06:09:23.576Z,3.73
2019-05-12T06:12:24.044Z,4.17
2019-05-12T06:15:29.732Z,3.80
2019-05-12T06:18:29.043Z,4.53
2019-05-12T06:21:36.837Z,5.53
2019-05-12T06:24:33.462Z,5.13
2019-05-12T06:27:35.988Z,2.60
2019-05-12T06:30:44.516Z,3.60
2019-05-12T06:33:39.692Z,3.63
2019-05-12T06:36:43.984Z,3.93
2019-05-12T06:39:44.163Z,4.70
2019-05-12T06:42:48.355Z,4.27
2019-05-12T06:45:48.624Z,3.93
2019-05-12T06:48:50.901Z,3.77
2019-05-12T06:52:01.318Z,4.33
2019-05-12T06:54:56.788Z,3.33
2019-05-12T06:57:57.737Z,3.80
2019-05-12T07:01:02.399Z,4.93
2019-05-12T07:04:06.449Z,4.33
2019-05-12T07:07:04.570Z,3.30
2019-05-12T07:10:11.728Z,4.50
2019-05-12T07:13:09.114Z,3.90
2019-05-12T07:16:19.145Z,5.00
2019-05-12T07:19:22.267Z,7.83
2019-05-12T07:22:22.529Z,4.83
2019-05-12T07:25:22.817Z,4.47
2019-05-12T07:28:23.685Z,4.10
2019-05-12T07:31:25.237Z,5.27
2019-05-12T07:34:27.593Z,5.63
2019-05-12T07:37:30.129Z,5.27
2019-05-12T07:40:34.741Z,6.57
2019-05-12T07:43:34.511Z,5.30
2019-05-12T07:46:39.759Z,4.57
2019-05-12T07:49:38.984Z,5.83
2019-05-12T07:52:44.002Z,5.13
2019-05-12T07:55:47.556Z,7.83
2019-05-12T07:58:49.068Z,6.93
2019-05-12T08:01:51.912Z,7.20
2019-05-12T08:04:50.327Z,8.70
2019-05-12T08:07:53.540Z,7.30
2019-05-12T08:10:55.933Z,8.17
2019-05-12T08:13:57.151Z,8.67
2019-05-12T08:17:02.106Z,7.77
2019-05-12T08:20:04.325Z,8.93
2019-05-12T08:23:08.612Z,12.27
2019-05-12T08:26:12.392Z,10.93
2019-05-12T08:29:10.378Z,10.60
2019-05-12T08:32:18.003Z,10.53
2019-05-12T08:35:13.939Z,9.93
2019-05-12T08:38:15.287Z,12.47
2019-05-12T08:41:17.495Z,13.23
2019-05-12T08:44:24.823Z,11.13
2019-05-12T08:47:23.839Z,11.43
2019-05-12T08:50:31.589Z,10.10
2019-05-12T08:53:26.562Z,11.63
2019-05-12T08:56:28.803Z,12.67
2019-05-12T08:59:31.061Z,7.97
2019-05-12T09:02:34.461Z,12.47
2019-05-12T09:05:38.547Z,10.50
2019-05-12T09:08:44.034Z,13.47
2019-05-12T09:11:40.333Z,10.17
2019-05-12T09:14:46.285Z,12.17
2019-05-12T09:17:52.498Z,10.03
2019-05-12T09:20:52.603Z,14.00
2019-05-12T09:23:49.499Z,11.97
2019-05-12T09:26:53.685Z,12.33
2019-05-12T09:29:54.101Z,11.90
2019-05-12T09:32:56.420Z,11.73
2019-05-12T09:35:58.705Z,11.27
2019-05-12T09:39:01.846Z,15.07
2019-05-12T09:42:03.877Z,13.63
2019-05-12T09:45:10.147Z,13.60
2019-05-12T09:48:09.359Z,13.83
2019-05-12T09:51:10.139Z,15.63
2019-05-12T09:54:13.919Z,17.60
2019-05-12T09:57:14.703Z,15.30
2019-05-12T10:00:17.042Z,19.47
2019-05-12T10:03:19.316Z,16.43
2019-05-12T10:06:21.619Z,15.67
2019-05-12T10:09:24.467Z,17.13
2019-05-12T10:12:29.352Z,18.97
2019-05-12T10:15:28.729Z,16.73
2019-05-12T10:18:30.704Z,19.60
2019-05-12T10:21:32.916Z,17.60
2019-05-12T10:24:41.559Z,21.90
2019-05-12T10:27:37.544Z,17.60
2019-05-12T10:30:39.783Z,19.90
2019-05-12T10:33:43.308Z,26.23
2019-05-12T10:36:49.037Z,23.30
2019-05-12T10:39:47.549Z,24.70
2019-05-12T10:42:49.836Z,20.83
2019-05-12T10:45:53.781Z,24.73
2019-05-12T10:48:54.420Z,28.40
2019-05-12T10:51:56.616Z,20.63
2019-05-12T10:54:58.880Z,29.67
2019-05-12T10:58:03.263Z,23.83
2019-05-12T11:01:05.368Z,26.77
2019-05-12T11:04:05.793Z,23.83
2019-05-12T11:07:08.038Z,27.40
2019-05-12T11:10:18.186Z,25.23
2019-05-12T11:13:14.198Z,27.27
2019-05-12T11:16:16.886Z,22.13
2019-05-12T11:19:17.285Z,35.07
2019-05-12T11:22:19.549Z,26.77
2019-05-12T11:25:21.796Z,26.63
2019-05-12T11:28:24.578Z,29.07
2019-05-12T11:31:26.351Z,25.60
2019-05-12T11:34:28.648Z,30.03
2019-05-12T11:37:30.891Z,32.00
2019-05-12T11:40:34.800Z,35.83
2019-05-12T11:43:35.427Z,32.03
2019-05-12T11:46:37.679Z,31.20
2019-05-12T11:49:39.941Z,25.37
2019-05-12T11:52:45.926Z,31.10
2019-05-12T11:55:44.412Z,31.57
2019-05-12T11:58:51.342Z,24.20
2019-05-12T12:01:51.483Z,22.43
2019-05-12T12:04:51.254Z,26.00
2019-05-12T12:07:56.161Z,31.00
2019-05-12T12:10:55.803Z,23.77
2019-05-12T12:14:00.487Z,23.57
2019-05-12T12:17:00.343Z,27.53
2019-05-12T12:20:03.765Z,25.07
2019-05-12T12:23:10.876Z,31.30
2019-05-12T12:26:07.160Z,25.43
2019-05-12T12:29:09.416Z,20.33
2019-05-12T12:32:17.745Z,24.60
2019-05-12T12:35:15.065Z,21.73
2019-05-12T12:38:16.347Z,25.07
2019-05-12T12:41:18.567Z,22.70
2019-05-12T12:44:20.824Z,23.63
2019-05-12T12:47:23.826Z,23.83
2019-05-12T12:50:26.507Z,21.87
2019-05-12T12:53:27.781Z,26.10
2019-05-12T12:56:30.373Z,21.77
2019-05-12T12:59:33.400Z,24.40
2019-05-12T13:02:39.116Z,24.17
2019-05-12T13:05:36.747Z,22.33
2019-05-12T13:08:39.026Z,26.90
2019-05-12T13:11:41.236Z,22.63
2019-05-12T13:14:44.325Z,30.70
2019-05-12T13:17:45.920Z,28.03
2019-05-12T13:20:48.169Z,26.83
2019-05-12T13:23:51.181Z,28.13
2019-05-12T13:26:54.003Z,31.03
2019-05-12T13:30:18.625Z,31.70
2019-05-12T13:33:15.061Z,28.40
2019-05-12T13:36:14.168Z,26.40
2019-05-12T13:39:16.669Z,31.07
2019-05-12T13:42:18.620Z,24.57
2019-05-12T13:45:20.946Z,28.00
2019-05-12T13:48:24.054Z,27.00
2019-05-12T13:51:25.483Z,23.33
2019-05-12T13:54:29.951Z,24.50
2019-05-12T13:57:34.019Z,22.27
2019-05-12T14:00:33.708Z,19.30
2019-05-12T14:03:39.828Z,20.23
2019-05-12T14:06:38.333Z,20.03
2019-05-12T14:09:40.571Z,24.27
2019-05-12T14:12:43.909Z,18.97
2019-05-12T14:15:45.065Z,20.40
2019-05-12T14:18:51.241Z,13.67
2019-05-12T14:21:49.670Z,18.00
2019-05-12T14:24:54.050Z,21.47
2019-05-12T14:27:54.141Z,13.83
2019-05-12T14:30:56.378Z,17.53
2019-05-12T14:33:58.631Z,16.10
2019-05-12T14:37:08.454Z,16.37
2019-05-12T14:40:04.530Z,16.57
2019-05-12T14:43:10.369Z,20.27
2019-05-12T14:46:10.321Z,16.77
2019-05-12T14:49:09.963Z,14.97
2019-05-12T14:52:13.473Z,15.30
2019-05-12T14:55:14.444Z,15.97
2019-05-12T14:58:20.518Z,16.30
2019-05-12T15:01:18.948Z,13.73
2019-05-12T15:04:27.898Z,19.03
2019-05-12T15:07:23.693Z,20.77
2019-05-12T15:10:25.751Z,20.27
2019-05-12T15:13:28.064Z,20.73
2019-05-12T15:16:31.708Z,20.70
2019-05-12T15:19:33.554Z,22.07
2019-05-12T15:22:34.903Z,21.37
2019-05-12T15:25:37.295Z,21.47
2019-05-12T15:28:39.448Z,20.57
2019-05-12T15:31:52.782Z,23.73
2019-05-12T15:34:44.202Z,19.30
2019-05-12T15:37:46.186Z,21.17
2019-05-12T15:40:48.429Z,22.97
2019-05-12T15:43:52.959Z,21.50
2019-05-12T15:46:53.582Z,18.80
2019-05-12T15:49:55.287Z,22.27
2019-05-12T15:52:57.552Z,22.57
2019-05-12T15:56:05.728Z,24.60
2019-05-12T15:59:02.593Z,19.50
2019-05-12T16:02:11.985Z,21.13
2019-05-12T16:05:06.677Z,22.53
2019-05-12T16:08:08.946Z,26.60
2019-05-12T16:11:13.807Z,22.00
2019-05-12T16:14:13.416Z,22.90
2019-05-12T16:17:18.460Z,18.83
2019-05-12T16:20:18.180Z,18.40
2019-05-12T16:23:25.104Z,22.80
2019-05-12T16:26:24.235Z,26.27
2019-05-12T16:29:25.607Z,20.40
2019-05-12T16:32:39.235Z,17.10
2019-05-12T16:35:31.816Z,18.40
2019-05-12T16:38:32.469Z,17.07
2019-05-12T16:41:34.687Z,21.60
2019-05-12T16:44:36.940Z,22.53
2019-05-12T16:47:39.170Z,18.63
2019-05-12T16:50:43.666Z,21.80
2019-05-12T16:53:43.806Z,22.60
2019-05-12T16:56:46.061Z,18.10
2019-05-12T16:59:55.937Z,21.93
2019-05-12T17:02:55.807Z,21.73
2019-05-12T17:05:55.709Z,22.50
2019-05-12T17:08:55.325Z,22.00
2019-05-12T17:11:57.559Z,22.43
2019-05-12T17:14:59.890Z,20.83
2019-05-12T17:18:04.341Z,23.00
2019-05-12T17:21:04.489Z,24.73
2019-05-12T17:24:06.728Z,23.80
2019-05-12T17:27:14.307Z,22.27
2019-05-12T17:30:13.349Z,19.53
2019-05-12T17:33:22.484Z,17.00
2019-05-12T17:36:18.074Z,15.53
2019-05-12T17:39:18.408Z,15.37
2019-05-12T17:42:26.597Z,16.37
2019-05-12T17:45:23.611Z,17.40
2019-05-12T17:48:25.454Z,18.53
2019-05-12T17:51:30.895Z,17.50
2019-05-12T17:54:30.166Z,16.00
2019-05-12T17:57:34.018Z,17.10
2019-05-12T18:00:34.853Z,18.73
2019-05-12T18:03:39.335Z,16.53
2019-05-12T18:06:39.607Z,17.57
2019-05-12T18:09:44.038Z,17.70
2019-05-12T18:12:45.366Z,23.30
2019-05-12T18:15:46.783Z,22.47
2019-05-12T18:18:49.072Z,22.87
2019-05-12T18:21:54.953Z,20.07
2019-05-12T18:24:54.299Z,22.50
2019-05-12T18:27:56.247Z,17.20
2019-05-12T18:30:58.552Z,18.37
2019-05-12T18:34:00.928Z,20.30
2019-05-12T18:37:05.403Z,17.77
2019-05-12T18:40:05.811Z,15.03
2019-05-12T18:43:08.043Z,16.03
2019-05-12T18:46:10.321Z,18.27
2019-05-12T18:49:15.680Z,18.27
2019-05-12T18:52:14.916Z,13.23
2019-05-12T18:55:17.171Z,15.07
2019-05-12T18:58:21.835Z,15.10
2019-05-12T19:01:24.303Z,17.07
2019-05-12T19:04:24.183Z,14.07
2019-05-12T19:07:39.420Z,14.67
2019-05-12T19:10:28.964Z,14.73
2019-05-12T19:13:33.632Z,14.27
2019-05-12T19:16:33.652Z,13.40
2019-05-12T19:19:36.007Z,16.00
2019-05-12T19:22:39.428Z,13.53
2019-05-12T19:25:41.037Z,13.20
2019-05-12T19:28:52.540Z,14.03
2019-05-12T19:31:52.013Z,13.87
2019-05-12T19:34:47.411Z,13.83
2019-05-12T19:37:49.680Z,16.03
2019-05-12T19:40:58.748Z,13.97
2019-05-12T19:43:54.148Z,15.10
2019-05-12T19:46:56.344Z,16.60
2019-05-12T19:49:59.599Z,15.87
2019-05-12T19:53:00.847Z,13.33
2019-05-12T19:56:03.857Z,15.43
2019-05-12T19:59:05.363Z,15.77
2019-05-12T20:02:07.679Z,12.67
2019-05-12T20:05:10.053Z,16.37
2019-05-12T20:08:13.597Z,16.40
2019-05-12T20:11:14.741Z,15.70
2019-05-12T20:14:21.342Z,19.07
2019-05-12T20:17:19.280Z,21.53
2019-05-12T20:20:26.576Z,19.73
2019-05-12T20:23:24.582Z,17.77
2019-05-12T20:26:26.176Z,14.00
2019-05-12T20:29:33.345Z,15.33
2019-05-12T20:32:30.659Z,16.30
2019-05-12T20:35:33.764Z,15.77
2019-05-12T20:38:36.938Z,13.50
2019-05-12T20:41:37.568Z,13.30
2019-05-12T20:44:39.760Z,12.80
2019-05-12T20:47:44.990Z,12.30
2019-05-12T20:50:44.322Z,13.03
2019-05-12T20:53:46.540Z,10.37
2019-05-12T20:56:53.049Z,11.50
2019-05-12T20:59:51.028Z,10.53
2019-05-12T21:02:53.918Z,12.73
2019-05-12T21:05:58.051Z,11.87
2019-05-12T21:08:57.824Z,10.23
2019-05-12T21:12:00.108Z,9.43
2019-05-12T21:15:13.649Z,10.33
2019-05-12T21:18:07.464Z,9.43
2019-05-12T21:21:07.142Z,8.37
2019-05-12T21:24:09.460Z,9.90
2019-05-12T21:27:15.866Z,9.77
2019-05-12T21:30:15.133Z,10.27
2019-05-12T21:33:16.295Z,8.30
2019-05-12T21:36:24.143Z,8.37
2019-05-12T21:39:20.745Z,10.73
2019-05-12T21:42:25.097Z,9.47
2019-05-12T21:45:26.760Z,7.70
2019-05-12T21:48:29.335Z,8.10
2019-05-12T21:51:29.852Z,9.33
2019-05-12T21:54:37.751Z,8.27
2019-05-12T21:57:34.606Z,9.07
2019-05-12T22:00:36.917Z,9.20
2019-05-12T22:03:39.193Z,8.40
2019-05-12T22:06:43.713Z,7.57
2019-05-12T22:09:46.823Z,8.37
2019-05-12T22:12:46.128Z,10.20
2019-05-12T22:15:51.335Z,10.77
2019-05-12T22:18:56.027Z,10.63
2019-05-12T22:21:53.697Z,10.37
2019-05-12T22:24:55.249Z,8.93
2019-05-12T22:27:59.238Z,9.73
2019-05-12T22:30:59.813Z,7.80
2019-05-12T22:34:04.059Z,10.17
2019-05-12T22:37:04.273Z,10.30
2019-05-12T22:40:15.141Z,8.47
2019-05-12T22:43:08.862Z,8.80
2019-05-12T22:46:16.207Z,8.30
2019-05-12T22:49:16.900Z,10.77
2019-05-12T22:52:17.436Z,10.30
2019-05-12T22:55:21.180Z,9.23
2019-05-12T22:58:22.527Z,10.17
2019-05-12T23:01:23.536Z,10.37
2019-05-12T23:04:25.970Z,9.63
2019-05-12T23:07:29.635Z,10.40
2019-05-12T23:10:29.267Z,11.03
2019-05-12T23:13:32.261Z,10.30
2019-05-12T23:16:33.739Z,9.60
2019-05-12T23:19:35.967Z,10.83
2019-05-12T23:22:38.175Z,11.30
2019-05-12T23:25:40.416Z,10.37
2019-05-12T23:28:46.929Z,9.70
2019-05-12T23:31:44.957Z,9.97
2019-05-12T23:34:56.636Z,9.60
2019-05-12T23:37:49.487Z,10.53
2019-05-12T23:40:53.624Z,11.13
2019-05-12T23:43:53.999Z,10.07
2019-05-12T23:46:56.219Z,11.70
2019-05-12T23:49:58.472Z,10.43
2019-05-12T23:53:00.749Z,12.37
2019-05-12T23:56:03.725Z,13.17
2019-05-12T23:59:05.255Z,10.23
